Time;durP1;ratioP1;P1;durP2;ratioP2;P2;SDS_P1;SDS_P2;PMS_P1;PMS_P2;Temp;Humidity;BMP_temperature;BMP_pressure;BME280_temperature;BME280_humidity;BME280_pressure;Samples;Min_cycle;Max_cycle;Signal;HPM_P1;HPM_P2
2023/01/16 00:02:28;;;;;;;2.70;2.05;;;6.40;99.90;;;;;;5085039;28;20256;-79
2023/01/16 00:05:09;;;;;;;3.40;2.15;;;6.40;99.90;;;;;;5086932;28;20212;-79
2023/01/16 00:07:45;;;;;;;4.50;2.45;;;6.40;99.90;;;;;;5075615;28;20327;-79
2023/01/16 00:10:13;;;;;;;2.85;1.45;;;6.40;99.90;;;;;;5079330;28;20255;-79
2023/01/16 00:12:48;;;;;;;3.53;1.75;;;6.50;99.90;;;;;;5077864;28;20200;-79
2023/01/16 00:15:15;;;;;;;3.78;1.80;;;6.40;99.90;;;;;;5084566;28;20277;-80
2023/01/16 00:17:43;;;;;;;6.22;2.38;;;6.50;99.90;;;;;;5078266;28;20208;-82
2023/01/16 00:20:24;;;;;;;3.55;2.08;;;6.40;99.90;;;;;;5081047;28;20273;-78
2023/01/16 00:22:53;;;;;;;4.85;2.10;;;6.40;99.90;;;;;;5079407;28;20223;-79
2023/01/16 00:25:22;;;;;;;5.28;2.63;;;6.40;99.90;;;;;;5086812;28;20207;-79
2023/01/16 00:27:55;;;;;;;3.92;1.90;;;6.50;99.90;;;;;;5088535;28;20210;-78
2023/01/16 00:30:39;;;;;;;5.03;1.85;;;6.50;99.90;;;;;;5076939;28;20663;-80
2023/01/16 00:33:10;;;;;;;4.60;2.35;;;6.60;99.90;;;;;;5079268;28;20244;-82
2023/01/16 00:35:37;;;;;;;3.63;1.92;;;6.60;99.90;;;;;;5074771;28;20222;-79
2023/01/16 00:38:07;;;;;;;3.35;2.00;;;6.70;99.90;;;;;;5080277;28;20311;-80
2023/01/16 00:40:34;;;;;;;4.50;2.20;;;6.60;99.90;;;;;;5072881;28;20292;-79
2023/01/16 00:43:12;;;;;;;2.28;2.05;;;6.60;99.90;;;;;;5085574;28;20222;-79
2023/01/16 00:45:47;;;;;;;3.90;1.40;;;6.60;99.90;;;;;;5084068;28;20225;-79
2023/01/16 00:48:32;;;;;;;5.07;2.60;;;6.60;99.90;;;;;;5080260;28;20201;-79
2023/01/16 00:51:02;;;;;;;3.53;1.52;;;6.60;99.90;;;;;;5073658;28;20261;-80
2023/01/16 00:53:43;;;;;;;3.65;1.85;;;6.80;99.90;;;;;;5075533;28;20210;-79
2023/01/16 00:56:24;;;;;;;3.15;2.10;;;6.80;99.90;;;;;;5073040;28;20222;-79
2023/01/16 00:58:54;;;;;;;5.00;1.75;;;6.80;99.90;;;;;;5074270;28;20222;-80
2023/01/16 01:01:21;;;;;;;5.70;2.00;;;6.90;99.90;;;;;;5068656;28;20203;-78
2023/01/16 01:03:49;;;;;;;4.43;2.30;;;6.90;99.90;;;;;;5077637;28;20219;-78
2023/01/16 01:06:18;;;;;;;6.85;2.80;;;6.90;99.90;;;;;;5062999;28;20317;-79
2023/01/16 01:08:50;;;;;;;4.25;1.90;;;6.90;99.90;;;;;;5073832;28;20204;-78
2023/01/16 01:11:21;;;;;;;4.03;1.98;;;6.90;99.90;;;;;;5073860;28;20257;-79
2023/01/16 01:13:48;;;;;;;2.47;1.88;;;6.90;99.90;;;;;;5080280;28;20237;-79
2023/01/16 01:16:19;;;;;;;5.07;2.35;;;6.80;99.90;;;;;;5075658;28;20627;-79
2023/01/16 01:19:13;;;;;;;4.53;2.38;;;6.80;99.90;;;;;;5081014;28;20247;-78
2023/01/16 01:21:46;;;;;;;3.45;1.90;;;6.80;99.90;;;;;;5073748;28;20237;-79
2023/01/16 01:24:15;;;;;;;5.82;3.15;;;6.80;99.90;;;;;;5073442;28;20236;-80
2023/01/16 01:26:42;;;;;;;11.30;3.10;;;6.80;99.90;;;;;;5072860;28;20215;-80
2023/01/16 01:29:16;;;;;;;3.38;2.78;;;6.80;99.90;;;;;;5074144;28;20675;-79
2023/01/16 01:31:44;;;;;;;7.32;2.58;;;6.80;99.90;;;;;;5087701;28;20205;-80
2023/01/16 01:34:26;;;;;;;8.18;2.53;;;6.90;99.90;;;;;;5086008;28;20261;-79
2023/01/16 01:36:56;;;;;;;5.50;2.17;;;6.90;99.90;;;;;;5076973;28;20233;-79
2023/01/16 01:39:34;;;;;;;2.97;2.45;;;6.80;99.90;;;;;;5087276;28;20560;-78
2023/01/16 01:45:03;;;;;;;5.10;2.05;;;7.00;99.90;;;;;;5083649;28;20205;-79
2023/01/16 01:47:40;;;;;;;4.30;2.05;;;7.10;99.90;;;;;;5086334;28;20730;-78
2023/01/16 01:50:19;;;;;;;4.93;1.90;;;7.10;99.90;;;;;;5075895;28;20207;-79
2023/01/16 01:52:51;;;;;;;4.20;1.73;;;7.10;99.90;;;;;;5074393;28;20210;-79
2023/01/16 01:55:22;;;;;;;2.47;1.90;;;7.00;99.90;;;;;;5090616;28;20737;-80
2023/01/16 01:57:55;;;;;;;2.90;2.05;;;7.00;99.90;;;;;;5093092;28;20223;-80
2023/01/16 02:00:36;;;;;;;10.77;2.65;;;7.00;99.90;;;;;;5096292;28;20196;-81
2023/01/16 02:03:14;;;;;;;3.55;1.85;;;7.00;99.90;;;;;;5073345;28;20294;-79
2023/01/16 02:05:49;;;;;;;2.20;1.67;;;7.00;99.90;;;;;;5080506;28;20230;-77
2023/01/16 02:08:20;;;;;;;5.60;1.77;;;7.10;99.90;;;;;;5067903;28;20244;-79
2023/01/16 02:10:53;;;;;;;5.97;1.70;;;7.10;99.90;;;;;;5065894;28;20199;-78
2023/01/16 02:13:23;;;;;;;4.20;1.70;;;7.00;99.90;;;;;;5073477;28;20241;-79
2023/01/16 02:21:57;;;;;;;6.55;1.70;;;7.10;99.90;;;;;;5082879;28;20277;-79
2023/01/16 02:25:17;;;;;;;3.65;1.80;;;7.00;99.90;;;;;;5090665;28;20211;-78
2023/01/16 02:28:13;;;;;;;3.33;1.85;;;6.90;99.90;;;;;;5090776;28;20221;-80
2023/01/16 02:31:17;;;;;;;3.85;2.10;;;7.00;99.90;;;;;;5083820;28;20186;-78
2023/01/16 02:33:58;;;;;;;6.53;2.15;;;7.00;99.90;;;;;;5068789;28;20195;-78
2023/01/16 02:36:41;;;;;;;8.23;2.15;;;6.90;99.90;;;;;;5091481;28;20230;-78
2023/01/16 02:39:18;;;;;;;6.88;1.98;;;6.90;99.90;;;;;;5086672;28;20235;-79
2023/01/16 02:42:05;;;;;;;3.33;1.60;;;6.90;99.90;;;;;;5076681;28;20217;-79
2023/01/16 02:44:46;;;;;;;7.25;2.30;;;6.90;99.90;;;;;;5064177;28;20204;-79
2023/01/16 02:47:25;;;;;;;6.40;2.50;;;6.90;99.90;;;;;;5074124;28;20229;-79
2023/01/16 02:50:00;;;;;;;5.30;2.88;;;7.00;99.90;;;;;;5081871;28;20648;-80
2023/01/16 02:52:39;;;;;;;7.22;2.38;;;6.90;99.90;;;;;;5079124;28;20205;-80
2023/01/16 02:55:17;;;;;;;3.80;2.25;;;6.80;99.90;;;;;;5069042;28;20277;-78
2023/01/16 02:58:00;;;;;;;5.47;1.80;;;6.80;99.90;;;;;;5067914;28;20207;-79
2023/01/16 03:00:30;;;;;;;4.45;3.55;;;6.80;99.90;;;;;;5091307;28;20178;-79
2023/01/16 03:03:05;;;;;;;4.55;1.60;;;6.80;99.90;;;;;;5096875;28;20241;-79
2023/01/16 03:05:43;;;;;;;3.97;2.08;;;6.80;99.90;;;;;;5080494;28;20201;-78
2023/01/16 03:08:37;;;;;;;7.93;1.70;;;6.80;99.90;;;;;;5081756;28;20202;-77
2023/01/16 03:11:22;;;;;;;7.55;2.10;;;6.80;99.90;;;;;;5080318;28;20311;-78
2023/01/16 03:14:13;;;;;;;11.52;2.55;;;6.80;99.90;;;;;;5079134;28;20210;-78
2023/01/16 03:16:50;;;;;;;6.47;1.50;;;6.80;99.90;;;;;;5079672;28;20216;-79
2023/01/16 03:19:33;;;;;;;7.05;2.65;;;6.80;99.90;;;;;;5083316;28;20255;-81
2023/01/16 03:22:35;;;;;;;5.88;1.92;;;6.70;99.90;;;;;;5068052;28;20273;-79
2023/01/16 03:25:22;;;;;;;5.30;2.05;;;6.60;99.90;;;;;;5064074;28;20225;-79
2023/01/16 03:28:01;;;;;;;5.00;1.58;;;6.60;99.90;;;;;;5074902;28;20253;-79
2023/01/16 03:30:37;;;;;;;5.60;1.48;;;6.40;99.90;;;;;;5079053;28;20198;-78
2023/01/16 03:33:31;;;;;;;5.13;1.80;;;6.50;99.90;;;;;;5065360;28;20588;-78
2023/01/16 03:36:10;;;;;;;4.72;1.60;;;6.50;99.90;;;;;;5067878;28;20265;-78
2023/01/16 03:38:41;;;;;;;3.95;1.73;;;6.50;99.90;;;;;;5065571;28;20227;-78
2023/01/16 03:41:18;;;;;;;3.25;1.40;;;6.40;99.90;;;;;;5076191;28;20230;-79
2023/01/16 03:43:57;;;;;;;3.63;1.60;;;6.30;99.90;;;;;;5061697;28;20213;-79
2023/01/16 03:46:28;;;;;;;2.15;1.15;;;6.20;99.90;;;;;;5061124;28;20637;-78
2023/01/16 03:49:03;;;;;;;2.35;1.40;;;6.10;99.90;;;;;;5065403;28;20237;-79
2023/01/16 03:51:49;;;;;;;5.32;1.60;;;6.10;99.90;;;;;;5069742;28;20212;-78
2023/01/16 03:54:29;;;;;;;2.67;1.90;;;6.00;99.90;;;;;;5066355;28;20314;-78
2023/01/16 03:57:12;;;;;;;1.83;1.30;;;6.00;99.90;;;;;;5062760;28;20242;-78
2023/01/16 03:59:47;;;;;;;3.13;1.52;;;5.80;99.90;;;;;;5070604;28;20196;-78
2023/01/16 04:02:19;;;;;;;2.63;1.50;;;5.70;99.90;;;;;;5075324;28;20206;-78
2023/01/16 04:05:03;;;;;;;5.45;1.38;;;5.70;99.90;;;;;;5067778;28;20585;-78
2023/01/16 04:07:47;;;;;;;3.08;1.70;;;5.80;99.90;;;;;;5064481;28;20295;-78
2023/01/16 04:10:25;;;;;;;9.10;1.73;;;5.80;99.90;;;;;;5078290;28;20862;-78
2023/01/16 04:13:03;;;;;;;3.85;1.70;;;5.90;99.90;;;;;;5073792;28;20238;-79
2023/01/16 04:15:45;;;;;;;4.47;1.52;;;5.90;99.90;;;;;;5072189;28;20218;-78
2023/01/16 04:21:01;;;;;;;2.20;1.75;;;5.90;99.90;;;;;;5078317;28;20209;-79
2023/01/16 04:23:33;;;;;;;4.53;1.25;;;5.90;99.90;;;;;;5081233;28;20231;-79
2023/01/16 04:26:06;;;;;;;10.80;2.25;;;6.00;99.90;;;;;;5084078;28;20255;-79
2023/01/16 04:28:34;;;;;;;2.28;1.38;;;6.00;99.90;;;;;;5081661;28;20198;-79
2023/01/16 04:31:09;;;;;;;5.60;1.45;;;6.00;99.90;;;;;;5097739;28;20218;-81
2023/01/16 04:33:39;;;;;;;1.00;0.88;;;6.00;99.90;;;;;;5093631;28;20193;-79
2023/01/16 04:36:10;;;;;;;4.50;1.60;;;6.00;99.90;;;;;;5090565;28;20230;-79
2023/01/16 04:38:47;;;;;;;3.45;1.60;;;5.90;99.90;;;;;;5086257;28;20194;-79
2023/01/16 04:41:35;;;;;;;4.95;1.40;;;5.90;99.90;;;;;;5086366;28;20209;-79
2023/01/16 04:44:03;;;;;;;2.70;1.15;;;5.80;99.90;;;;;;5079942;28;20213;-78
2023/01/16 04:46:31;;;;;;;3.05;1.55;;;5.90;99.90;;;;;;5078294;28;20264;-79
2023/01/16 04:49:09;;;;;;;8.32;1.17;;;5.90;99.90;;;;;;5070904;28;20201;-78
2023/01/16 04:51:42;;;;;;;4.55;1.30;;;5.80;99.90;;;;;;5072721;28;20204;-78
2023/01/16 04:54:19;;;;;;;1.60;1.48;;;5.80;99.90;;;;;;5068269;28;20202;-79
2023/01/16 04:57:02;;;;;;;2.97;1.08;;;6.00;99.90;;;;;;5072505;28;20604;-78
2023/01/16 04:59:30;;;;;;;17.48;2.60;;;6.00;99.90;;;;;;5066659;28;20202;-78
2023/01/16 05:01:58;;;;;;;2.60;1.60;;;6.00;99.90;;;;;;5079288;28;20213;-78
2023/01/16 05:04:25;;;;;;;6.55;1.42;;;6.00;99.90;;;;;;5077043;28;20228;-78
2023/01/16 05:06:56;;;;;;;2.92;1.60;;;6.10;99.90;;;;;;5081639;28;20209;-77
2023/01/16 05:09:31;;;;;;;2.10;1.50;;;6.10;99.90;;;;;;5086990;28;20652;-79
2023/01/16 05:12:00;;;;;;;6.28;1.55;;;6.10;99.90;;;;;;5081413;28;20264;-79
2023/01/16 05:14:31;;;;;;;4.72;1.95;;;6.10;99.90;;;;;;5082661;28;20228;-78
2023/01/16 05:17:02;;;;;;;8.32;2.28;;;6.10;99.90;;;;;;5071412;28;20237;-78
2023/01/16 05:19:46;;;;;;;5.68;2.35;;;6.10;99.90;;;;;;5068183;28;20224;-78
2023/01/16 05:22:17;;;;;;;2.17;1.45;;;6.10;99.90;;;;;;5077228;28;20275;-78
2023/01/16 05:24:49;;;;;;;3.42;1.88;;;6.10;99.90;;;;;;5076824;28;20277;-78
2023/01/16 05:27:19;;;;;;;3.65;1.17;;;6.00;99.90;;;;;;5076978;28;20221;-78
2023/01/16 05:29:49;;;;;;;2.25;1.25;;;6.00;99.90;;;;;;5071325;28;20263;-79
2023/01/16 05:32:16;;;;;;;7.53;1.60;;;6.10;99.90;;;;;;5069375;28;20232;-78
2023/01/16 05:34:50;;;;;;;5.20;2.15;;;6.20;99.90;;;;;;5062560;28;20199;-78
2023/01/16 05:37:23;;;;;;;2.95;1.10;;;6.10;99.90;;;;;;5068482;28;20311;-78
2023/01/16 05:39:57;;;;;;;3.88;1.55;;;6.10;99.90;;;;;;5071321;28;20198;-79
2023/01/16 05:42:31;;;;;;;3.75;1.50;;;6.10;99.90;;;;;;5077015;28;20206;-78
2023/01/16 05:45:15;;;;;;;3.58;1.70;;;6.00;99.90;;;;;;5069236;28;20213;-79
2023/01/16 05:47:44;;;;;;;7.05;2.15;;;6.10;99.90;;;;;;5068516;28;20662;-79
2023/01/16 05:50:17;;;;;;;5.28;1.88;;;6.20;99.90;;;;;;5081323;28;20655;-79
2023/01/16 05:52:50;;;;;;;6.35;2.22;;;6.20;99.90;;;;;;5079880;28;20210;-78
2023/01/16 05:55:19;;;;;;;2.85;1.73;;;6.30;99.90;;;;;;5060295;28;20217;-79
2023/01/16 05:57:47;;;;;;;3.58;1.70;;;6.30;99.90;;;;;;5062585;28;20195;-79
2023/01/16 06:00:19;;;;;;;7.47;2.20;;;6.40;99.90;;;;;;5068965;28;20203;-79
2023/01/16 06:02:46;;;;;;;7.38;2.28;;;6.30;99.90;;;;;;5071035;28;20213;-79
2023/01/16 06:05:16;;;;;;;3.38;1.77;;;6.20;99.90;;;;;;5075080;28;20241;-79
2023/01/16 06:07:44;;;;;;;4.28;1.95;;;6.20;99.90;;;;;;5064410;28;20274;-80
2023/01/16 06:10:16;;;;;;;7.82;2.30;;;6.10;99.90;;;;;;5073010;28;20558;-79
2023/01/16 06:12:56;;;;;;;7.43;2.80;;;6.10;99.90;;;;;;5083805;28;20282;-79
2023/01/16 06:15:26;;;;;;;4.25;2.08;;;6.20;99.90;;;;;;5087036;28;20217;-80
2023/01/16 06:17:56;;;;;;;4.95;2.40;;;6.20;99.90;;;;;;5085406;28;20219;-79
2023/01/16 06:20:24;;;;;;;8.93;2.70;;;6.10;99.90;;;;;;5085591;28;20299;-79
2023/01/16 06:22:57;;;;;;;2.45;2.10;;;6.00;99.90;;;;;;5084871;28;20244;-79
2023/01/16 06:25:27;;;;;;;5.32;2.13;;;6.00;99.90;;;;;;5077872;28;20219;-81
2023/01/16 06:27:58;;;;;;;5.05;2.15;;;6.10;99.90;;;;;;5077087;28;20243;-80
2023/01/16 06:30:35;;;;;;;4.13;2.10;;;6.20;99.90;;;;;;5084219;28;20200;-80
2023/01/16 06:33:03;;;;;;;1.88;1.67;;;6.20;99.90;;;;;;5080725;28;20262;-79
2023/01/16 06:35:33;;;;;;;5.63;1.90;;;6.20;99.90;;;;;;5080390;28;20202;-79
2023/01/16 06:38:03;;;;;;;3.10;1.90;;;6.30;99.90;;;;;;5076904;28;20255;-80
2023/01/16 06:40:33;;;;;;;2.63;2.42;;;6.30;99.90;;;;;;5087056;28;20210;-79
2023/01/16 06:43:04;;;;;;;5.32;2.20;;;6.20;99.90;;;;;;5084049;28;20199;-79
2023/01/16 06:45:49;;;;;;;5.50;2.55;;;6.20;99.90;;;;;;5078233;28;20242;-78
2023/01/16 06:48:18;;;;;;;5.00;2.28;;;6.00;99.90;;;;;;5081982;28;20225;-81
2023/01/16 06:50:46;;;;;;;4.68;2.30;;;6.00;99.90;;;;;;5086229;28;20222;-80
2023/01/16 06:53:27;;;;;;;5.70;2.80;;;5.90;99.90;;;;;;5087951;28;20209;-84
2023/01/16 06:56:01;;;;;;;5.55;2.20;;;5.90;99.90;;;;;;5093791;28;20228;-85
2023/01/16 06:58:35;;;;;;;3.45;1.80;;;5.80;99.90;;;;;;5094049;28;20193;-84
2023/01/16 07:01:04;;;;;;;2.65;2.28;;;5.80;99.90;;;;;;5078073;28;20221;-84
2023/01/16 07:03:42;;;;;;;6.18;1.80;;;5.90;99.90;;;;;;5084031;28;20220;-81
2023/01/16 07:06:13;;;;;;;4.10;2.08;;;5.90;99.90;;;;;;5092111;28;20224;-80
2023/01/16 07:08:42;;;;;;;3.92;2.20;;;5.80;99.90;;;;;;5089649;28;20259;-80
2023/01/16 07:11:14;;;;;;;4.10;1.60;;;5.80;99.90;;;;;;5078321;28;20202;-79
2023/01/16 07:13:49;;;;;;;2.53;1.55;;;5.80;99.90;;;;;;5082804;28;20223;-81
2023/01/16 07:22:38;;;;;;;4.20;1.35;;;5.70;99.90;;;;;;5068990;28;20221;-80
2023/01/16 07:25:13;;;;;;;7.13;2.40;;;5.70;99.90;;;;;;5080243;28;20229;-79
2023/01/16 07:27:42;;;;;;;5.05;1.38;;;5.60;99.90;;;;;;5079360;28;20672;-78
2023/01/16 07:30:15;;;;;;;3.65;1.50;;;5.50;99.90;;;;;;5071260;28;20201;-79
2023/01/16 07:32:45;;;;;;;5.43;1.83;;;5.50;99.90;;;;;;5076831;28;20200;-80
2023/01/16 07:35:14;;;;;;;5.57;2.00;;;5.50;99.90;;;;;;5080594;28;20279;-79
2023/01/16 07:37:56;;;;;;;5.10;3.05;;;5.50;99.90;;;;;;5080783;28;20242;-79
2023/01/16 07:40:25;;;;;;;6.65;2.00;;;5.60;99.90;;;;;;5080205;28;20214;-80
2023/01/16 07:42:53;;;;;;;3.40;1.90;;;5.60;99.90;;;;;;5084657;28;20213;-80
2023/01/16 07:45:25;;;;;;;6.00;1.45;;;5.60;99.90;;;;;;5071151;28;20218;-79
2023/01/16 07:48:00;;;;;;;7.60;2.42;;;5.60;99.90;;;;;;5077126;28;20197;-80
2023/01/16 07:50:30;;;;;;;6.30;1.92;;;5.60;99.90;;;;;;5076859;28;20199;-79
2023/01/16 07:52:57;;;;;;;2.15;1.58;;;5.60;99.90;;;;;;5084172;28;20216;-79
2023/01/16 07:55:32;;;;;;;5.55;1.83;;;5.60;99.90;;;;;;5091862;28;20199;-80
2023/01/16 07:57:59;;;;;;;2.45;1.55;;;5.50;99.90;;;;;;5084662;28;20269;-78
2023/01/16 08:00:30;;;;;;;5.22;1.98;;;5.60;99.90;;;;;;5081162;28;20205;-79
2023/01/16 08:03:03;;;;;;;2.95;1.42;;;5.60;99.90;;;;;;5084562;28;20204;-79
2023/01/16 08:05:34;;;;;;;7.65;2.22;;;5.60;99.90;;;;;;5079352;28;20210;-78
2023/01/16 08:08:07;;;;;;;3.20;1.25;;;5.60;99.90;;;;;;5076287;28;20261;-78
2023/01/16 08:10:34;;;;;;;1.70;1.25;;;5.60;99.90;;;;;;5090860;28;20205;-78
2023/01/16 08:13:11;;;;;;;2.30;1.48;;;5.70;99.90;;;;;;5080305;28;20233;-78
2023/01/16 08:15:45;;;;;;;4.00;2.25;;;5.70;99.90;;;;;;5091196;28;20215;-79
2023/01/16 08:18:37;;;;;;;8.65;1.77;;;5.70;99.90;;;;;;5086992;28;20219;-78
2023/01/16 08:21:16;;;;;;;3.45;2.40;;;5.70;99.90;;;;;;5080792;28;20197;-78
2023/01/16 08:23:43;;;;;;;2.80;1.73;;;5.70;99.90;;;;;;5081034;28;20203;-76
2023/01/16 08:26:16;;;;;;;6.72;1.88;;;5.70;99.90;;;;;;5085893;28;20235;-78
2023/01/16 08:28:48;;;;;;;2.28;1.38;;;5.60;99.90;;;;;;5089599;28;20267;-78
2023/01/16 08:31:47;;;;;;;2.38;1.40;;;5.80;99.90;;;;;;5092172;28;20213;-78
2023/01/16 08:34:26;;;;;;;4.18;1.50;;;6.00;99.90;;;;;;5093614;28;20227;-78
2023/01/16 08:36:58;;;;;;;1.75;1.20;;;6.00;99.90;;;;;;5092970;28;20245;-78
2023/01/16 08:39:34;;;;;;;2.95;1.17;;;6.00;99.90;;;;;;5091378;28;20248;-79
2023/01/16 08:53:24;;;;;;;3.58;1.60;;;6.00;99.90;;;;;;5089227;28;20689;-79
2023/01/16 08:55:54;;;;;;;4.13;1.55;;;6.00;99.90;;;;;;5088952;28;20253;-78
2023/01/16 08:58:31;;;;;;;2.65;1.55;;;5.90;99.90;;;;;;5086973;28;20280;-79
2023/01/16 09:01:02;;;;;;;3.00;1.45;;;6.00;99.90;;;;;;5087308;28;20205;-80
2023/01/16 09:03:44;;;;;;;2.53;1.05;;;6.10;99.90;;;;;;5085273;28;20203;-80
2023/01/16 09:06:14;;;;;;;1.60;1.10;;;6.10;99.90;;;;;;5084978;28;20325;-81
2023/01/16 09:08:41;;;;;;;2.13;1.30;;;6.10;99.90;;;;;;5085329;28;20212;-80
2023/01/16 09:14:01;;;;;;;3.80;1.90;;;6.10;99.90;;;;;;5089417;28;20218;-81
2023/01/16 09:16:30;;;;;;;5.22;1.30;;;6.10;99.90;;;;;;5082715;28;20229;-80
2023/01/16 09:19:01;;;;;;;1.80;1.50;;;6.20;99.90;;;;;;5085950;28;20210;-81
2023/01/16 09:24:24;;;;;;;2.60;1.25;;;6.30;99.90;;;;;;5087188;28;20229;-81
2023/01/16 09:32:18;;;;;;;3.90;2.20;;;6.30;99.90;;;;;;5080474;28;20195;-81
2023/01/16 09:34:53;;;;;;;2.40;1.27;;;6.30;99.90;;;;;;5074920;28;20202;-80
2023/01/16 09:37:23;;;;;;;1.90;1.48;;;6.30;99.90;;;;;;5088507;28;20237;-81
2023/01/16 09:39:53;;;;;;;1.90;1.40;;;6.40;99.90;;;;;;5083646;28;20198;-80
2023/01/16 09:45:30;;;;;;;3.50;1.38;;;6.30;99.90;;;;;;5084606;28;20232;-81
2023/01/16 09:48:15;;;;;;;7.30;1.88;;;6.40;99.90;;;;;;5088340;28;20202;-80
2023/01/16 09:50:53;;;;;;;3.75;1.63;;;6.40;99.90;;;;;;5082977;28;20182;-80
2023/01/16 09:59:29;;;;;;;2.67;1.58;;;6.40;99.90;;;;;;5027132;28;20243;-79
2023/01/16 10:02:04;;;;;;;1.85;1.20;;;6.50;99.90;;;;;;5061229;28;20289;-79
2023/01/16 10:04:43;;;;;;;4.68;1.88;;;6.40;99.90;;;;;;5072866;28;20209;-81
2023/01/16 10:07:34;;;;;;;6.07;1.95;;;6.40;99.90;;;;;;5083426;28;20233;-80
2023/01/16 10:10:14;;;;;;;4.63;1.60;;;6.40;99.90;;;;;;5083110;28;20218;-80
2023/01/16 10:12:52;;;;;;;2.78;1.20;;;6.40;99.90;;;;;;5075898;28;20210;-80
2023/01/16 10:15:33;;;;;;;3.22;1.90;;;6.40;99.90;;;;;;5083494;28;20213;-79
2023/01/16 10:18:15;;;;;;;1.85;1.35;;;6.50;99.90;;;;;;5083994;28;20195;-80
2023/01/16 10:20:55;;;;;;;2.15;1.45;;;6.40;99.90;;;;;;5074676;28;20258;-80
2023/01/16 10:23:53;;;;;;;2.70;1.42;;;6.40;99.90;;;;;;5078520;28;20229;-80
2023/01/16 10:26:28;;;;;;;2.50;1.98;;;6.40;99.90;;;;;;5079476;28;20222;-80
2023/01/16 10:29:09;;;;;;;2.65;1.23;;;6.50;99.90;;;;;;5086699;28;20178;-81
2023/01/16 10:31:42;;;;;;;2.30;1.50;;;6.60;99.90;;;;;;5090260;28;20188;-79
2023/01/16 10:34:16;;;;;;;3.50;2.03;;;6.60;99.90;;;;;;5093596;28;20201;-79
2023/01/16 10:37:00;;;;;;;3.72;1.60;;;6.60;99.90;;;;;;5090857;28;20242;-80
2023/01/16 10:39:33;;;;;;;3.38;1.17;;;6.70;99.90;;;;;;5085187;28;20258;-79
2023/01/16 10:50:58;;;;;;;3.20;1.90;;;7.10;99.90;;;;;;5035872;28;20207;-79
2023/01/16 10:53:28;;;;;;;2.28;1.10;;;7.00;99.90;;;;;;5069361;28;20190;-79
2023/01/16 10:56:02;;;;;;;2.10;1.40;;;7.10;99.90;;;;;;5091745;28;20622;-79
2023/01/16 10:58:31;;;;;;;1.55;1.30;;;7.30;99.90;;;;;;5090069;28;20217;-80
2023/01/16 11:01:02;;;;;;;4.15;2.58;;;7.30;99.90;;;;;;5096675;28;20198;-80
2023/01/16 11:03:43;;;;;;;3.33;1.40;;;7.40;99.90;;;;;;5094877;28;20193;-79
2023/01/16 11:06:36;;;;;;;2.80;1.75;;;7.30;99.90;;;;;;5087130;28;20227;-79
2023/01/16 11:09:06;;;;;;;2.67;1.50;;;7.30;99.90;;;;;;5089111;28;20195;-80
2023/01/16 11:20:21;;;;;;;15.95;2.67;;;7.20;99.90;;;;;;5079322;28;20209;-80
2023/01/16 11:22:58;;;;;;;7.10;1.55;;;7.20;99.90;;;;;;5087168;28;20202;-79
2023/01/16 11:25:27;;;;;;;3.80;1.40;;;7.20;99.90;;;;;;5087800;28;20206;-80
2023/01/16 11:27:59;;;;;;;2.78;1.20;;;7.20;99.90;;;;;;5084492;28;20214;-79
2023/01/16 11:30:34;;;;;;;4.38;1.50;;;7.10;99.90;;;;;;5084085;28;20691;-80
2023/01/16 11:33:07;;;;;;;2.47;1.30;;;7.00;99.90;;;;;;5074836;28;20203;-79
2023/01/16 11:35:37;;;;;;;4.00;2.05;;;6.90;99.90;;;;;;5080997;28;20195;-79
2023/01/16 11:38:06;;;;;;;5.43;1.60;;;6.80;99.90;;;;;;5080990;28;20206;-80
2023/01/16 11:40:49;;;;;;;6.00;1.80;;;6.70;99.90;;;;;;5078492;28;20221;-81
2023/01/16 11:46:32;;;;;;;3.47;1.60;;;6.80;99.90;;;;;;5080878;28;20232;-80
2023/01/16 11:49:03;;;;;;;3.47;1.73;;;6.80;99.90;;;;;;5070934;28;20218;-80
2023/01/16 11:51:39;;;;;;;2.75;1.40;;;6.70;99.90;;;;;;5077307;28;20204;-81
2023/01/16 11:54:13;;;;;;;6.07;1.70;;;6.70;99.90;;;;;;5083600;28;20205;-80
2023/01/16 11:57:24;;;;;;;7.28;1.50;;;6.80;99.90;;;;;;5074684;28;20222;-79
2023/01/16 12:00:23;;;;;;;5.72;1.20;;;6.90;99.90;;;;;;5077953;28;20221;-80
2023/01/16 12:03:07;;;;;;;3.35;1.40;;;6.90;99.90;;;;;;5091593;28;20218;-80
2023/01/16 12:05:57;;;;;;;3.47;2.03;;;6.90;99.90;;;;;;5080040;28;20186;-80
2023/01/16 12:08:52;;;;;;;2.58;1.45;;;6.90;99.90;;;;;;5089910;28;20203;-79
2023/01/16 12:11:41;;;;;;;5.22;1.98;;;6.90;99.90;;;;;;5077423;28;20220;-80
2023/01/16 12:14:17;;;;;;;4.78;1.38;;;6.90;99.90;;;;;;5083686;28;20219;-82
2023/01/16 12:17:04;;;;;;;3.13;1.88;;;6.90;99.90;;;;;;5086048;28;20252;-80
2023/01/16 12:19:59;;;;;;;1.90;1.40;;;6.90;99.90;;;;;;5085437;28;20202;-81
2023/01/16 12:22:42;;;;;;;3.15;1.33;;;6.90;99.90;;;;;;5080811;28;20206;-81
2023/01/16 12:25:34;;;;;;;4.22;1.80;;;6.90;99.90;;;;;;5076082;28;20205;-79
2023/01/16 12:28:16;;;;;;;4.00;1.92;;;6.90;99.90;;;;;;5072779;28;20204;-80
2023/01/16 12:31:10;;;;;;;4.78;1.70;;;6.80;99.90;;;;;;5083232;28;20206;-80
2023/01/16 12:33:49;;;;;;;7.00;1.83;;;6.70;99.90;;;;;;5086297;28;20203;-80
2023/01/16 12:36:30;;;;;;;4.55;1.95;;;6.70;99.90;;;;;;5079507;28;20277;-80
2023/01/16 12:39:09;;;;;;;5.05;1.90;;;6.60;99.90;;;;;;5078055;28;20214;-80
2023/01/16 12:44:50;;;;;;;3.30;1.73;;;6.70;99.90;;;;;;5083154;28;20224;-80
2023/01/16 12:47:41;;;;;;;5.63;2.35;;;6.70;99.90;;;;;;5085662;28;20227;-80
2023/01/16 12:50:33;;;;;;;5.70;1.55;;;6.70;99.90;;;;;;5075751;28;20278;-80
2023/01/16 12:53:19;;;;;;;3.35;1.60;;;6.80;99.90;;;;;;5082748;28;20207;-81
2023/01/16 12:55:59;;;;;;;2.42;1.10;;;6.80;99.90;;;;;;5088448;28;20226;-80
2023/01/16 12:58:39;;;;;;;3.75;1.90;;;6.90;99.90;;;;;;5081398;28;20214;-81
2023/01/16 13:01:19;;;;;;;3.05;1.70;;;6.90;99.90;;;;;;5080034;28;20209;-81
2023/01/16 13:03:56;;;;;;;1.95;1.15;;;7.00;99.90;;;;;;5084955;28;20186;-80
2023/01/16 13:06:38;;;;;;;3.22;2.33;;;7.10;99.90;;;;;;5091858;28;20246;-80
2023/01/16 13:09:17;;;;;;;4.50;1.40;;;7.00;99.90;;;;;;5086617;28;20217;-79
2023/01/16 13:14:46;;;;;;;2.85;1.50;;;7.00;99.90;;;;;;5086480;28;20232;-79
2023/01/16 13:17:27;;;;;;;11.43;1.92;;;7.10;99.90;;;;;;5095934;28;20226;-80
2023/01/16 13:19:56;;;;;;;2.10;1.35;;;7.10;99.90;;;;;;5079405;28;20202;-80
2023/01/16 13:22:47;;;;;;;2.53;1.17;;;7.20;99.90;;;;;;5081661;28;20236;-80
2023/01/16 13:25:48;;;;;;;6.43;1.40;;;7.20;99.90;;;;;;5093315;28;20259;-79
2023/01/16 13:28:26;;;;;;;6.50;1.30;;;7.10;99.90;;;;;;5094137;28;20206;-80
2023/01/16 13:30:56;;;;;;;4.00;1.30;;;7.20;99.90;;;;;;5094574;28;20327;-81
2023/01/16 13:33:29;;;;;;;5.60;2.00;;;7.10;99.90;;;;;;5090502;28;20207;-80
2023/01/16 13:36:06;;;;;;;2.05;1.20;;;7.10;99.90;;;;;;5093907;28;20223;-80
2023/01/16 13:39:00;;;;;;;6.07;1.40;;;7.20;99.90;;;;;;5089443;28;20200;-80
2023/01/16 13:41:31;;;;;;;3.60;1.77;;;7.20;99.90;;;;;;5094353;28;20186;-81
2023/01/16 13:47:08;;;;;;;3.35;1.20;;;7.20;99.90;;;;;;5090632;28;20276;-80
2023/01/16 13:49:36;;;;;;;1.88;1.08;;;7.30;99.90;;;;;;5079492;28;20226;-80
2023/01/16 13:52:18;;;;;;;2.35;1.10;;;7.20;99.90;;;;;;5087674;28;20236;-80
2023/01/16 13:54:51;;;;;;;2.78;1.48;;;7.10;99.90;;;;;;5084588;28;20689;-80
2023/01/16 13:57:24;;;;;;;2.28;1.45;;;7.10;99.90;;;;;;5082192;28;20221;-80
2023/01/16 14:00:01;;;;;;;6.28;1.58;;;7.00;99.90;;;;;;5084194;28;20289;-80
2023/01/16 14:02:45;;;;;;;2.75;1.98;;;6.90;99.90;;;;;;5085497;28;20261;-80
2023/01/16 14:05:52;;;;;;;3.38;1.58;;;6.90;99.90;;;;;;5082267;28;20216;-80
2023/01/16 14:11:38;;;;;;;3.05;1.30;;;6.80;99.90;;;;;;5074241;28;20205;-79
2023/01/16 14:20:39;;;;;;;2.05;0.93;;;6.60;99.90;;;;;;4999297;28;20193;-80
2023/01/16 14:26:20;;;;;;;5.45;1.40;;;6.60;99.90;;;;;;5086844;28;20249;-80
2023/01/16 14:28:54;;;;;;;4.60;2.97;;;6.60;99.90;;;;;;5073013;28;20199;-78
2023/01/16 14:31:27;;;;;;;6.07;1.80;;;6.60;99.90;;;;;;5077051;28;20687;-79
2023/01/16 14:33:58;;;;;;;2.88;1.73;;;6.60;99.90;;;;;;5075960;28;20206;-79
2023/01/16 14:36:30;;;;;;;3.25;1.30;;;6.40;99.90;;;;;;5083780;28;20218;-81
2023/01/16 14:38:58;;;;;;;2.78;1.23;;;6.30;99.90;;;;;;5078385;28;20263;-80
2023/01/16 14:56:17;;;;;;;4.25;1.20;;;6.20;99.90;;;;;;5080147;28;20360;-80
2023/01/16 14:58:49;;;;;;;2.13;1.10;;;6.20;99.90;;;;;;5069248;28;20273;-80
2023/01/16 15:04:16;;;;;;;2.75;1.25;;;6.10;99.90;;;;;;5083863;28;20203;-80
2023/01/16 15:06:49;;;;;;;1.90;1.45;;;6.10;99.90;;;;;;5085826;28;20232;-81
2023/01/16 15:09:23;;;;;;;3.67;1.40;;;6.10;99.90;;;;;;5079733;28;20201;-80
2023/01/16 15:11:56;;;;;;;4.32;1.17;;;6.10;99.90;;;;;;5080783;28;20211;-79
2023/01/16 15:14:27;;;;;;;2.25;1.20;;;6.10;99.90;;;;;;5082551;28;20217;-81
2023/01/16 15:23:04;;;;;;;4.70;1.38;;;6.10;99.90;;;;;;5086802;28;20230;-83
2023/01/16 15:25:47;;;;;;;0.90;0.80;;;6.10;99.90;;;;;;5094808;28;20190;-80
2023/01/16 15:28:22;;;;;;;1.77;1.20;;;6.10;99.90;;;;;;5088084;28;20244;-82
2023/01/16 15:30:54;;;;;;;1.90;1.00;;;6.10;99.90;;;;;;5088407;28;20329;-79
2023/01/16 15:33:47;;;;;;;1.27;1.10;;;6.10;99.90;;;;;;5068826;28;20703;-83
2023/01/16 15:36:22;;;;;;;2.50;1.20;;;6.20;99.90;;;;;;5086412;28;20247;-84
2023/01/16 15:38:52;;;;;;;1.92;1.70;;;6.10;99.90;;;;;;5083227;28;20204;-80
2023/01/16 15:46:32;;;;;;;2.75;1.27;;;6.20;99.90;;;;;;5078795;28;20245;-81